createdAt,value
2022-11-29T00:00:37.763Z,31.13
2022-11-29T00:03:04.409Z,34.50
2022-11-29T00:05:33.492Z,34.03
2022-11-29T00:07:59.875Z,30.57
2022-11-29T00:10:26.239Z,34.00
2022-11-29T00:12:52.731Z,33.37
2022-11-29T00:15:19.063Z,33.80
2022-11-29T00:17:45.477Z,35.10
2022-11-29T00:20:12.402Z,35.77
2022-11-29T00:22:39.812Z,38.80
2022-11-29T00:25:06.756Z,36.83
2022-11-29T00:27:33.184Z,34.33
2022-11-29T00:29:59.513Z,32.90
2022-11-29T00:32:26.002Z,34.27
2022-11-29T00:34:52.331Z,30.30
2022-11-29T00:37:18.712Z,41.20
2022-11-29T00:39:45.090Z,36.80
2022-11-29T00:42:11.595Z,36.93
2022-11-29T00:44:37.933Z,38.80
2022-11-29T00:47:04.301Z,36.93
2022-11-29T00:49:30.632Z,41.83
2022-11-29T00:51:57.151Z,40.37
2022-11-29T00:54:23.505Z,41.50
2022-11-29T00:56:49.867Z,51.33
2022-11-29T00:59:16.196Z,40.97
2022-11-29T01:01:42.710Z,45.00
2022-11-29T01:04:09.130Z,45.23
2022-11-29T01:06:35.485Z,39.27
2022-11-29T01:09:01.811Z,45.07
2022-11-29T01:11:28.815Z,48.63
2022-11-29T01:13:59.215Z,43.43
2022-11-29T01:16:27.230Z,45.23
2022-11-29T01:18:53.689Z,45.63
2022-11-29T01:21:23.055Z,46.70
2022-11-29T01:23:51.117Z,47.80
2022-11-29T01:26:23.393Z,42.13
2022-11-29T01:28:52.190Z,54.40
2022-11-29T01:31:27.437Z,49.83
2022-11-29T01:33:59.497Z,50.07
2022-11-29T01:36:26.452Z,43.60
2022-11-29T01:38:53.315Z,48.70
2022-11-29T01:41:22.961Z,49.40
2022-11-29T01:44:07.684Z,50.50
2022-11-29T01:46:37.142Z,49.03
2022-11-29T01:49:09.804Z,49.57
2022-11-29T01:51:39.071Z,46.43
2022-11-29T01:54:07.058Z,47.57
2022-11-29T01:56:34.557Z,57.27
2022-11-29T01:59:07.943Z,55.47
2022-11-29T02:01:35.807Z,54.47
2022-11-29T02:04:02.717Z,50.10
2022-11-29T02:06:30.587Z,50.37
2022-11-29T02:08:57.246Z,50.37
2022-11-29T02:11:48.732Z,46.50
2022-11-29T02:14:48.807Z,52.77
2022-11-29T02:17:53.741Z,53.70
2022-11-29T02:21:01.359Z,55.93
2022-11-29T02:24:05.198Z,52.67
2022-11-29T02:27:17.603Z,53.87
2022-11-29T02:30:19.029Z,55.20
2022-11-29T02:33:12.934Z,60.50
2022-11-29T02:36:11.580Z,52.20
2022-11-29T02:39:12.411Z,57.27
2022-11-29T02:41:58.148Z,69.87
2022-11-29T02:44:32.352Z,52.00
2022-11-29T02:47:32.751Z,54.70
2022-11-29T02:50:02.074Z,55.60
2022-11-29T02:52:46.986Z,59.30
2022-11-29T02:55:22.540Z,53.63
2022-11-29T02:58:06.380Z,58.53
2022-11-29T03:00:39.768Z,67.43
2022-11-29T03:03:17.535Z,57.83
2022-11-29T03:05:58.990Z,57.13
2022-11-29T03:08:29.860Z,58.00
2022-11-29T03:11:02.372Z,58.03
2022-11-29T03:13:50.629Z,73.10
2022-11-29T03:16:45.026Z,63.13
2022-11-29T03:19:43.877Z,55.83
2022-11-29T03:22:28.190Z,58.60
2022-11-29T03:25:12.252Z,57.47
2022-11-29T03:27:44.060Z,62.20
2022-11-29T03:30:13.734Z,53.43
2022-11-29T03:32:48.549Z,59.50
2022-11-29T03:35:27.219Z,63.63
2022-11-29T03:38:14.120Z,63.43
2022-11-29T03:41:04.936Z,55.10
2022-11-29T03:44:23.976Z,66.57
2022-11-29T03:46:56.795Z,61.33
2022-11-29T03:49:51.798Z,60.67
2022-11-29T03:52:22.058Z,58.87
2022-11-29T03:55:03.472Z,62.20
2022-11-29T03:58:01.574Z,55.30
2022-11-29T04:00:39.483Z,65.90
2022-11-29T04:03:46.159Z,59.47
2022-11-29T04:06:47.966Z,66.90
2022-11-29T04:09:45.323Z,56.53
2022-11-29T04:12:36.907Z,64.50
2022-11-29T04:15:15.461Z,69.53
2022-11-29T04:18:04.779Z,61.40
2022-11-29T04:20:59.103Z,63.40
2022-11-29T04:23:49.822Z,67.40
2022-11-29T04:26:38.477Z,58.27
2022-11-29T04:29:32.865Z,58.20
2022-11-29T04:32:18.407Z,55.70
2022-11-29T04:35:06.592Z,64.43
2022-11-29T04:37:51.691Z,64.47
2022-11-29T04:40:37.669Z,60.63
2022-11-29T04:43:25.646Z,63.33
2022-11-29T04:46:34.171Z,64.70
2022-11-29T04:49:19.139Z,71.87
2022-11-29T04:52:16.548Z,62.50
2022-11-29T04:54:55.562Z,66.43
2022-11-29T04:57:48.451Z,63.90
2022-11-29T05:00:24.956Z,63.17
2022-11-29T05:02:57.059Z,64.80
2022-11-29T05:05:55.015Z,59.27
2022-11-29T05:09:06.010Z,61.20
2022-11-29T05:11:43.496Z,60.77
2022-11-29T05:14:40.864Z,65.03
2022-11-29T05:17:28.541Z,69.23
2022-11-29T05:20:17.371Z,65.93
2022-11-29T05:23:02.291Z,66.23
2022-11-29T05:25:42.355Z,73.73
2022-11-29T05:28:23.941Z,62.33
2022-11-29T05:31:18.395Z,72.93
2022-11-29T05:33:44.686Z,66.83
2022-11-29T05:36:48.845Z,63.77
2022-11-29T05:39:21.262Z,61.97
2022-11-29T05:42:16.454Z,68.90
2022-11-29T05:44:49.561Z,63.80
2022-11-29T05:47:28.315Z,73.43
2022-11-29T05:50:11.371Z,72.60
2022-11-29T05:53:15.325Z,72.20
2022-11-29T05:55:53.906Z,70.17
2022-11-29T05:58:30.770Z,70.00
2022-11-29T06:01:09.535Z,64.87
2022-11-29T06:03:55.474Z,74.60
2022-11-29T06:06:41.426Z,75.50
2022-11-29T06:09:19.530Z,69.80
2022-11-29T06:11:51.983Z,63.83
2022-11-29T06:14:49.079Z,68.00
2022-11-29T06:17:46.254Z,65.07
2022-11-29T06:20:30.304Z,64.07
2022-11-29T06:23:17.815Z,67.80
2022-11-29T06:26:08.659Z,69.63
2022-11-29T06:29:20.272Z,69.93
2022-11-29T06:31:58.132Z,66.73
2022-11-29T06:34:31.019Z,75.70
2022-11-29T06:37:12.279Z,71.63
2022-11-29T06:39:38.807Z,75.87
2022-11-29T06:42:05.156Z,81.93
2022-11-29T06:44:31.752Z,85.50
2022-11-29T06:47:15.338Z,70.73
2022-11-29T06:49:48.287Z,73.50
2022-11-29T06:52:40.746Z,78.10
2022-11-29T06:55:24.479Z,65.97
2022-11-29T06:58:36.240Z,73.50
2022-11-29T07:01:26.048Z,71.93
2022-11-29T07:04:01.579Z,75.37
2022-11-29T07:06:29.629Z,74.33
2022-11-29T07:09:03.159Z,73.10
2022-11-29T07:11:30.052Z,70.30
2022-11-29T07:13:56.559Z,67.93
2022-11-29T07:16:33.798Z,76.03
2022-11-29T07:19:15.269Z,73.27
2022-11-29T07:22:07.554Z,71.37
2022-11-29T07:25:11.487Z,75.00
2022-11-29T07:28:05.063Z,64.37
2022-11-29T07:30:46.659Z,71.43
2022-11-29T07:33:34.224Z,76.43
2022-11-29T07:36:19.110Z,76.50
2022-11-29T07:39:12.145Z,63.63
2022-11-29T07:41:46.425Z,76.10
2022-11-29T07:44:33.883Z,77.67
2022-11-29T07:47:00.332Z,68.40
2022-11-29T07:49:26.739Z,69.53
2022-11-29T07:51:54.927Z,72.17
2022-11-29T07:54:22.273Z,63.43
2022-11-29T07:56:48.723Z,74.73
2022-11-29T07:59:15.059Z,56.07
2022-11-29T08:01:41.906Z,67.17
2022-11-29T08:04:08.929Z,68.63
2022-11-29T08:06:36.128Z,62.83
2022-11-29T08:09:03.822Z,63.67
2022-11-29T08:11:30.515Z,60.87
2022-11-29T08:13:58.449Z,54.93
2022-11-29T08:16:25.005Z,66.37
2022-11-29T08:18:53.608Z,66.70
2022-11-29T08:21:20.163Z,60.40
2022-11-29T08:23:47.914Z,62.70
2022-11-29T08:26:15.294Z,66.20
2022-11-29T08:28:41.895Z,66.63
2022-11-29T08:31:10.270Z,69.53
2022-11-29T08:33:41.699Z,67.93
2022-11-29T08:36:11.217Z,65.40
2022-11-29T08:38:37.641Z,69.97
2022-11-29T08:41:06.108Z,64.03
2022-11-29T08:43:32.764Z,65.60
2022-11-29T08:45:59.499Z,74.03
2022-11-29T08:48:26.223Z,71.57
2022-11-29T08:50:54.054Z,70.10
2022-11-29T08:53:38.984Z,69.53
2022-11-29T08:56:23.500Z,64.10
2022-11-29T08:58:52.213Z,64.23
2022-11-29T09:01:19.612Z,69.07
2022-11-29T09:04:06.957Z,74.67
2022-11-29T09:06:39.723Z,67.30
2022-11-29T09:09:06.798Z,68.43
2022-11-29T09:11:34.992Z,60.67
2022-11-29T09:14:04.551Z,69.00
2022-11-29T09:16:34.491Z,65.67
2022-11-29T09:19:00.898Z,69.73
2022-11-29T09:21:29.642Z,69.50
2022-11-29T09:23:59.064Z,73.73
2022-11-29T09:26:27.933Z,68.37
2022-11-29T09:28:54.269Z,70.40
2022-11-29T09:31:21.356Z,69.60
2022-11-29T09:33:48.806Z,68.53
2022-11-29T09:36:16.021Z,73.30
2022-11-29T09:38:42.341Z,67.87
2022-11-29T09:41:38.778Z,75.90
2022-11-29T09:44:47.344Z,66.97
2022-11-29T09:47:32.915Z,71.47
2022-11-29T09:50:23.372Z,65.23
2022-11-29T09:53:08.315Z,63.60
2022-11-29T09:55:43.098Z,69.53
2022-11-29T09:58:13.892Z,61.70
2022-11-29T10:00:47.347Z,66.03
2022-11-29T10:03:36.252Z,57.97
2022-11-29T10:06:11.755Z,63.70
2022-11-29T10:08:47.090Z,64.37
2022-11-29T10:11:32.831Z,54.60
2022-11-29T10:14:21.073Z,59.37
2022-11-29T10:16:52.786Z,62.97
2022-11-29T10:19:29.936Z,60.43
2022-11-29T10:22:03.494Z,60.10
2022-11-29T10:24:32.694Z,61.33
2022-11-29T10:26:59.759Z,63.67
2022-11-29T10:29:26.847Z,65.20
2022-11-29T10:31:56.644Z,69.50
2022-11-29T10:34:25.468Z,59.90
2022-11-29T10:36:59.996Z,60.77
2022-11-29T10:39:46.976Z,73.77
2022-11-29T10:42:40.682Z,65.67
2022-11-29T10:45:20.847Z,67.70
2022-11-29T10:47:49.334Z,69.13
2022-11-29T10:50:31.933Z,62.63
2022-11-29T10:53:06.949Z,64.20
2022-11-29T10:55:48.706Z,65.43
2022-11-29T10:58:27.499Z,61.20
2022-11-29T11:01:02.419Z,60.50
2022-11-29T11:03:28.693Z,68.30
2022-11-29T11:06:11.583Z,76.53
2022-11-29T11:08:41.056Z,69.60
2022-11-29T11:11:08.431Z,68.07
2022-11-29T11:13:36.304Z,65.80
2022-11-29T11:16:18.970Z,68.53
2022-11-29T11:18:47.288Z,66.33
2022-11-29T11:21:17.897Z,76.77
2022-11-29T11:23:57.937Z,62.87
2022-11-29T11:26:26.048Z,64.63
2022-11-29T11:28:52.330Z,62.60
2022-11-29T11:31:31.688Z,68.77
2022-11-29T11:34:24.131Z,72.17
2022-11-29T11:36:50.515Z,63.37
2022-11-29T11:39:22.281Z,74.73
2022-11-29T11:42:10.115Z,71.03
2022-11-29T11:44:48.327Z,72.33
2022-11-29T11:47:25.086Z,73.00
2022-11-29T11:50:00.050Z,79.53
2022-11-29T11:52:32.180Z,65.23
2022-11-29T11:55:02.937Z,77.07
2022-11-29T11:57:30.317Z,65.23
2022-11-29T12:00:02.117Z,68.27
2022-11-29T12:02:40.920Z,69.50
2022-11-29T12:05:19.127Z,72.87
2022-11-29T12:08:10.591Z,66.03
2022-11-29T12:10:40.423Z,67.47
2022-11-29T12:13:17.285Z,61.50
2022-11-29T12:15:47.248Z,66.90
2022-11-29T12:18:30.792Z,74.47
2022-11-29T12:21:03.311Z,70.40
2022-11-29T12:23:45.963Z,68.27
2022-11-29T12:26:41.232Z,68.77
2022-11-29T12:29:09.558Z,70.37
2022-11-29T12:32:01.237Z,76.93
2022-11-29T12:35:19.181Z,69.13
2022-11-29T12:38:03.659Z,73.43
2022-11-29T12:41:07.325Z,69.23
2022-11-29T12:44:05.285Z,65.07
2022-11-29T12:46:32.642Z,75.33
2022-11-29T12:49:21.300Z,71.37
2022-11-29T12:52:13.815Z,63.53
2022-11-29T12:55:10.532Z,69.47
2022-11-29T12:58:02.615Z,76.70
2022-11-29T13:00:35.997Z,74.63
2022-11-29T13:03:26.097Z,75.03
2022-11-29T13:06:21.348Z,70.57
2022-11-29T13:09:13.616Z,78.70
2022-11-29T13:11:48.750Z,77.70
2022-11-29T13:14:42.479Z,67.40
2022-11-29T13:17:35.996Z,69.00
2022-11-29T13:20:17.903Z,68.00
2022-11-29T13:22:50.188Z,78.57
2022-11-29T13:25:43.004Z,76.00
2022-11-29T13:28:29.100Z,81.80
2022-11-29T13:31:01.786Z,73.07
2022-11-29T13:33:39.747Z,68.87
2022-11-29T13:36:57.143Z,69.17
2022-11-29T13:39:51.647Z,71.90
2022-11-29T13:42:32.874Z,66.63
2022-11-29T13:45:24.065Z,65.43
2022-11-29T13:47:56.093Z,70.33
2022-11-29T13:50:44.595Z,66.67
2022-11-29T13:53:48.291Z,76.90
2022-11-29T13:56:42.537Z,69.57
2022-11-29T13:59:17.559Z,72.83
2022-11-29T14:01:46.415Z,76.80
2022-11-29T14:04:25.945Z,72.87
2022-11-29T14:07:05.722Z,66.20
2022-11-29T14:09:47.741Z,73.60
2022-11-29T14:12:38.388Z,75.83
2022-11-29T14:15:10.936Z,71.93
2022-11-29T14:17:51.619Z,75.40
2022-11-29T14:20:28.438Z,74.00
2022-11-29T14:23:03.984Z,73.23
2022-11-29T14:25:54.965Z,68.40
2022-11-29T14:28:21.298Z,66.13
2022-11-29T14:30:56.998Z,74.83
2022-11-29T14:33:42.387Z,73.33
2022-11-29T14:36:14.798Z,69.37
2022-11-29T14:39:03.165Z,77.77
2022-11-29T14:41:54.383Z,80.07
2022-11-29T14:44:24.524Z,78.70
2022-11-29T14:47:03.104Z,71.87
2022-11-29T14:49:31.394Z,84.43
2022-11-29T14:52:24.381Z,78.10
2022-11-29T14:54:58.549Z,76.53
2022-11-29T14:57:46.988Z,76.77
2022-11-29T15:00:19.019Z,79.90
2022-11-29T15:02:50.151Z,92.40
2022-11-29T15:05:27.746Z,84.60
2022-11-29T15:08:09.580Z,90.23
2022-11-29T15:10:41.015Z,89.83
2022-11-29T15:13:13.904Z,81.13
2022-11-29T15:15:50.106Z,79.03
2022-11-29T15:18:47.075Z,87.87
2022-11-29T15:21:32.180Z,85.70
2022-11-29T15:24:03.187Z,83.60
2022-11-29T15:26:29.756Z,89.97
2022-11-29T15:29:15.929Z,83.97
2022-11-29T15:32:05.490Z,78.27
2022-11-29T15:34:40.026Z,81.20
2022-11-29T15:37:06.582Z,81.93
2022-11-29T15:39:35.585Z,76.33
2022-11-29T15:42:15.707Z,80.90
2022-11-29T15:44:46.660Z,79.30
2022-11-29T15:47:24.527Z,83.90
2022-11-29T15:49:52.098Z,79.03
2022-11-29T15:52:27.706Z,82.63
2022-11-29T15:54:59.435Z,85.23
2022-11-29T15:57:38.929Z,90.73
2022-11-29T16:00:16.181Z,69.60
2022-11-29T16:03:02.928Z,83.53
2022-11-29T16:05:33.979Z,80.13
2022-11-29T16:08:04.658Z,76.00
2022-11-29T16:10:43.521Z,78.33
2022-11-29T16:13:27.999Z,86.40
2022-11-29T16:16:20.598Z,91.80
2022-11-29T16:18:48.777Z,82.83
2022-11-29T16:21:28.993Z,80.93
2022-11-29T16:23:57.270Z,70.40
2022-11-29T16:26:30.114Z,88.27
2022-11-29T16:28:58.074Z,90.43
2022-11-29T16:31:36.244Z,77.10
2022-11-29T16:34:08.717Z,83.23
2022-11-29T16:36:35.890Z,75.07
2022-11-29T16:39:06.950Z,78.10
2022-11-29T16:41:38.475Z,86.70
2022-11-29T16:44:25.762Z,81.47
2022-11-29T16:47:27.490Z,85.63
2022-11-29T16:50:02.613Z,88.60
2022-11-29T16:52:31.440Z,81.87
2022-11-29T16:54:57.847Z,79.43
2022-11-29T16:57:25.435Z,82.37
2022-11-29T16:59:51.945Z,76.70
2022-11-29T17:02:18.552Z,82.63
2022-11-29T17:04:45.732Z,72.20
2022-11-29T17:07:18.008Z,92.03
2022-11-29T17:09:44.520Z,75.23
2022-11-29T17:12:13.315Z,81.00
2022-11-29T17:14:40.068Z,83.03
2022-11-29T17:17:06.517Z,81.07
2022-11-29T17:19:32.946Z,80.00
2022-11-29T17:21:59.317Z,77.53
2022-11-29T17:24:25.653Z,85.23
2022-11-29T17:26:52.050Z,78.00
2022-11-29T17:29:18.796Z,78.80
2022-11-29T17:31:46.694Z,83.40
2022-11-29T17:34:13.337Z,73.83
2022-11-29T17:36:40.454Z,72.90
2022-11-29T17:39:07.465Z,76.47
2022-11-29T17:41:34.146Z,86.50
2022-11-29T17:44:00.778Z,70.13
2022-11-29T17:46:28.939Z,90.13
2022-11-29T17:48:55.612Z,73.67
2022-11-29T17:54:10.924Z,76.07
2022-11-29T17:56:37.283Z,79.77
2022-11-29T17:59:04.081Z,81.80
2022-11-29T18:01:35.658Z,74.90
2022-11-29T18:04:04.340Z,83.03
2022-11-29T18:06:35.227Z,84.37
2022-11-29T18:09:02.730Z,82.03
2022-11-29T18:11:30.405Z,91.17
2022-11-29T18:13:58.254Z,79.10
2022-11-29T18:16:30.334Z,69.50
2022-11-29T18:18:59.678Z,90.13
2022-11-29T18:21:26.383Z,77.90
2022-11-29T18:23:53.428Z,80.43
2022-11-29T18:26:22.309Z,84.53
2022-11-29T18:28:49.053Z,81.57
2022-11-29T18:31:24.255Z,80.87
2022-11-29T18:33:54.139Z,92.53
2022-11-29T18:36:23.571Z,87.40
2022-11-29T18:38:55.195Z,89.30
2022-11-29T18:41:22.951Z,88.63
2022-11-29T18:43:55.150Z,78.10
2022-11-29T18:46:21.694Z,97.40
2022-11-29T18:48:48.103Z,83.60
2022-11-29T18:51:16.666Z,89.03
2022-11-29T18:53:43.916Z,96.63
2022-11-29T18:56:15.749Z,84.90
2022-11-29T18:58:44.038Z,99.70
2022-11-29T19:01:13.288Z,98.90
2022-11-29T19:03:50.338Z,89.13
2022-11-29T19:06:20.819Z,92.20
2022-11-29T19:08:47.470Z,84.67
2022-11-29T19:11:16.147Z,102.80
2022-11-29T19:13:43.323Z,98.93
2022-11-29T19:16:17.430Z,93.80
2022-11-29T19:18:45.257Z,94.93
2022-11-29T19:21:13.881Z,87.33
2022-11-29T19:23:41.731Z,99.90
2022-11-29T19:26:11.166Z,94.20
2022-11-29T19:28:42.575Z,90.23
2022-11-29T19:31:10.497Z,89.27
2022-11-29T19:33:38.755Z,93.80
2022-11-29T19:36:06.442Z,100.70
2022-11-29T19:38:35.003Z,98.90
2022-11-29T19:41:08.672Z,87.20
2022-11-29T19:43:35.298Z,107.07
2022-11-29T19:46:16.258Z,100.03
2022-11-29T19:48:43.382Z,94.90
2022-11-29T19:51:11.662Z,103.40
2022-11-29T19:53:38.548Z,96.83
2022-11-29T19:56:10.685Z,95.27
2022-11-29T19:58:37.031Z,104.03
2022-11-29T20:01:08.809Z,103.00
2022-11-29T20:03:35.661Z,93.07
2022-11-29T20:06:02.895Z,106.50
2022-11-29T20:08:30.155Z,90.60
2022-11-29T20:11:04.167Z,94.33
2022-11-29T20:13:30.587Z,93.30
2022-11-29T20:16:02.360Z,99.30
2022-11-29T20:18:33.153Z,96.50
2022-11-29T20:21:07.500Z,98.63
2022-11-29T20:23:34.349Z,102.07
2022-11-29T20:26:01.311Z,94.13
2022-11-29T20:28:28.235Z,101.10
2022-11-29T20:30:55.193Z,93.70
2022-11-29T20:33:24.596Z,102.97
2022-11-29T20:36:00.107Z,92.10
2022-11-29T20:38:37.210Z,101.93
2022-11-29T20:41:17.033Z,102.20
2022-11-29T20:43:58.069Z,97.80
2022-11-29T20:46:25.737Z,94.47
2022-11-29T20:48:53.279Z,87.33
2022-11-29T20:51:25.326Z,96.97
2022-11-29T20:53:51.715Z,98.20
2022-11-29T20:56:18.138Z,99.77
2022-11-29T20:58:44.476Z,93.93
2022-11-29T21:01:11.230Z,93.80
2022-11-29T21:03:37.795Z,97.50
2022-11-29T21:06:05.780Z,102.80
2022-11-29T21:08:33.267Z,92.23
2022-11-29T21:11:05.519Z,103.47
2022-11-29T21:13:32.644Z,89.20
2022-11-29T21:15:59.573Z,107.43
2022-11-29T21:18:28.174Z,90.83
2022-11-29T21:21:14.051Z,94.80
2022-11-29T21:23:55.359Z,95.93
2022-11-29T21:26:29.942Z,89.90
2022-11-29T21:29:19.434Z,104.03
2022-11-29T21:31:48.416Z,103.97
2022-11-29T21:34:14.923Z,96.87
2022-11-29T21:36:41.920Z,104.93
2022-11-29T21:39:12.820Z,90.87
2022-11-29T21:41:39.287Z,82.47
2022-11-29T21:44:07.489Z,88.63
2022-11-29T21:46:34.781Z,95.60
2022-11-29T21:49:01.153Z,83.83
2022-11-29T21:51:27.665Z,93.60
2022-11-29T21:53:53.981Z,98.67
2022-11-29T21:56:20.335Z,88.10
2022-11-29T21:58:46.659Z,103.40
2022-11-29T22:01:17.929Z,85.30
2022-11-29T22:03:44.817Z,105.07
2022-11-29T22:06:20.519Z,88.10
2022-11-29T22:08:48.134Z,100.27
2022-11-29T22:11:30.409Z,106.50
2022-11-29T22:14:13.867Z,105.07
2022-11-29T22:16:42.365Z,91.93
2022-11-29T22:19:12.103Z,90.87
2022-11-29T22:21:40.637Z,96.73
2022-11-29T22:24:08.961Z,93.03
2022-11-29T22:26:36.029Z,97.67
2022-11-29T22:29:02.378Z,80.17
2022-11-29T22:31:28.787Z,95.50
2022-11-29T22:33:56.012Z,102.73
2022-11-29T22:36:22.918Z,91.40
2022-11-29T22:38:49.308Z,106.50
2022-11-29T22:41:16.591Z,108.67
2022-11-29T22:43:43.372Z,91.87
2022-11-29T22:46:16.234Z,99.57
2022-11-29T22:48:44.164Z,102.60
2022-11-29T22:51:14.507Z,109.60
2022-11-29T22:53:43.527Z,108.50
2022-11-29T22:56:11.425Z,105.73
2022-11-29T22:58:37.868Z,90.40
2022-11-29T23:01:09.896Z,102.57
2022-11-29T23:03:38.257Z,87.77
2022-11-29T23:06:06.991Z,94.27
2022-11-29T23:08:34.507Z,97.13
2022-11-29T23:11:04.214Z,88.63
2022-11-29T23:13:38.421Z,93.67
2022-11-29T23:16:07.312Z,104.50
2022-11-29T23:18:34.422Z,108.00
2022-11-29T23:21:13.910Z,96.27
2022-11-29T23:23:40.980Z,106.87
2022-11-29T23:26:09.035Z,86.93
2022-11-29T23:28:35.894Z,99.07
2022-11-29T23:31:02.383Z,110.67
2022-11-29T23:33:28.873Z,102.20
2022-11-29T23:36:03.847Z,121.67
2022-11-29T23:38:30.200Z,105.03
2022-11-29T23:40:57.006Z,93.80
2022-11-29T23:43:23.772Z,92.37
2022-11-29T23:45:50.787Z,101.00
2022-11-29T23:48:17.385Z,98.87
2022-11-29T23:50:44.003Z,99.13
2022-11-29T23:53:16.304Z,85.90
2022-11-29T23:55:43.472Z,97.03
2022-11-29T23:58:10.792Z,92.93
